Time;durP1;ratioP1;P1;durP2;ratioP2;P2;SDS_P1;SDS_P2;PMS_P1;PMS_P2;Temp;Humidity;BMP_temperature;BMP_pressure;BME280_temperature;BME280_humidity;BME280_pressure;Samples;Min_cycle;Max_cycle;Signal;HPM_P1;HPM_P2
2023/04/28 00:00:51;;;;;;;1.90;0.90;;;18.20;69.60;;;;;;2427308;56;20940;-84
2023/04/28 00:03:17;;;;;;;2.53;1.20;;;18.20;69.60;;;;;;2428380;56;20987;-84
2023/04/28 00:05:45;;;;;;;3.05;1.10;;;18.20;69.60;;;;;;2427041;56;22030;-83
2023/04/28 00:08:11;;;;;;;2.50;1.02;;;18.20;69.60;;;;;;2211924;56;21008;-84
2023/04/28 00:10:38;;;;;;;2.70;1.10;;;18.20;69.60;;;;;;2211745;56;20991;-83
2023/04/28 00:13:04;;;;;;;2.22;1.00;;;18.20;69.60;;;;;;2210186;56;20992;-83
2023/04/28 00:15:31;;;;;;;2.40;0.90;;;18.10;69.60;;;;;;2428342;56;20996;-83
2023/04/28 00:17:57;;;;;;;2.35;0.98;;;18.20;69.80;;;;;;2430015;56;21003;-83
2023/04/28 00:20:23;;;;;;;2.50;1.02;;;18.10;69.70;;;;;;2426651;56;21024;-83
2023/04/28 00:22:49;;;;;;;2.45;1.20;;;18.10;69.70;;;;;;2211044;56;21433;-83
2023/04/28 00:25:16;;;;;;;2.35;1.10;;;18.10;69.70;;;;;;2212018;56;20968;-83
2023/04/28 00:27:42;;;;;;;3.42;1.40;;;18.10;69.80;;;;;;2427689;55;21015;-83
2023/04/28 00:30:09;;;;;;;2.90;1.52;;;18.10;69.80;;;;;;2427943;56;21051;-84
2023/04/28 00:32:35;;;;;;;2.92;1.70;;;18.00;69.80;;;;;;2211420;56;21084;-83
2023/04/28 00:35:02;;;;;;;2.60;1.40;;;18.10;69.90;;;;;;2210930;56;20951;-83
2023/04/28 00:37:28;;;;;;;2.90;1.67;;;18.00;69.90;;;;;;2427526;56;20936;-84
2023/04/28 00:39:55;;;;;;;3.20;1.60;;;18.00;69.90;;;;;;2428225;56;21024;-84
2023/04/28 00:42:21;;;;;;;3.92;1.70;;;18.00;69.90;;;;;;2208655;56;21083;-84
2023/04/28 00:44:48;;;;;;;2.78;1.62;;;17.90;69.90;;;;;;2427483;56;20936;-84
2023/04/28 00:47:14;;;;;;;2.40;1.30;;;18.00;70.00;;;;;;2427767;56;20935;-84
2023/04/28 00:49:41;;;;;;;2.60;1.20;;;18.00;70.00;;;;;;2428049;56;21017;-84
2023/04/28 00:52:07;;;;;;;3.33;1.37;;;17.90;70.00;;;;;;2426953;56;20992;-84
2023/04/28 00:54:34;;;;;;;3.35;1.20;;;17.90;70.00;;;;;;2211533;56;20959;-84
2023/04/28 00:57:03;;;;;;;2.45;1.05;;;17.90;70.00;;;;;;2427505;56;20960;-84
2023/04/28 00:59:29;;;;;;;2.30;1.00;;;17.90;70.00;;;;;;2211375;56;21087;-83
2023/04/28 01:01:56;;;;;;;2.42;1.12;;;17.90;70.10;;;;;;2210857;56;21824;-83
2023/04/28 01:04:22;;;;;;;2.20;1.05;;;17.90;70.10;;;;;;2428270;56;20996;-83
2023/04/28 01:06:49;;;;;;;2.75;1.20;;;17.90;70.00;;;;;;2209994;56;20968;-83
2023/04/28 01:09:15;;;;;;;2.08;1.00;;;17.90;70.10;;;;;;2212207;56;20988;-84
2023/04/28 01:11:42;;;;;;;1.90;0.90;;;17.90;70.20;;;;;;2428282;56;21008;-85
2023/04/28 01:14:08;;;;;;;2.83;1.20;;;17.90;70.20;;;;;;2210729;56;21462;-84
2023/04/28 01:16:34;;;;;;;2.72;1.25;;;17.90;70.30;;;;;;2211682;56;20967;-83
2023/04/28 01:19:00;;;;;;;2.62;1.20;;;17.90;70.30;;;;;;2428187;56;20975;-84
2023/04/28 01:21:32;;;;;;;2.53;1.17;;;17.90;70.20;;;;;;2210877;56;20955;-84
2023/04/28 01:23:59;;;;;;;1.98;1.02;;;17.80;69.80;;;;;;2211537;56;20984;-83
2023/04/28 01:26:25;;;;;;;2.70;1.00;;;17.90;70.30;;;;;;2211300;56;20979;-84
2023/04/28 01:28:52;;;;;;;2.37;1.02;;;17.80;70.30;;;;;;2427580;56;20948;-84
2023/04/28 01:31:19;;;;;;;2.15;1.00;;;17.80;70.30;;;;;;2428639;56;20956;-84
2023/04/28 01:33:45;;;;;;;2.47;1.12;;;17.80;70.40;;;;;;2428056;56;21060;-84
2023/04/28 01:36:11;;;;;;;3.70;1.23;;;17.80;70.50;;;;;;2426730;56;21055;-83
2023/04/28 01:38:37;;;;;;;4.00;1.20;;;17.80;70.40;;;;;;2428260;56;21024;-84
2023/04/28 01:41:04;;;;;;;2.40;1.10;;;17.80;70.50;;;;;;2427542;56;21768;-83
2023/04/28 01:43:30;;;;;;;3.00;1.25;;;17.80;70.50;;;;;;2427478;56;21794;-83
2023/04/28 01:45:56;;;;;;;2.78;1.40;;;17.80;70.50;;;;;;2211097;56;20988;-84
2023/04/28 01:48:23;;;;;;;3.37;1.60;;;17.70;70.50;;;;;;2211119;56;21003;-84
2023/04/28 01:50:49;;;;;;;2.80;1.35;;;17.70;70.50;;;;;;2193800;57;20984;-84
2023/04/28 01:53:19;;;;;;;3.75;1.48;;;17.70;70.60;;;;;;2428833;56;21096;-84
2023/04/28 01:55:46;;;;;;;2.92;1.20;;;17.70;70.70;;;;;;2427462;56;21012;-84
2023/04/28 01:58:12;;;;;;;2.35;1.20;;;17.80;70.90;;;;;;2426185;56;20968;-84
2023/04/28 02:00:38;;;;;;;3.30;1.40;;;17.70;70.90;;;;;;2210471;56;21040;-84
2023/04/28 02:03:05;;;;;;;2.78;1.20;;;17.70;70.90;;;;;;2210537;56;21789;-83
2023/04/28 02:05:31;;;;;;;3.05;1.15;;;17.60;70.80;;;;;;2428089;56;21076;-84
2023/04/28 02:07:57;;;;;;;2.37;1.30;;;17.70;70.90;;;;;;2427316;56;20975;-85
2023/04/28 02:10:24;;;;;;;1.95;1.00;;;17.70;71.00;;;;;;2428290;56;21015;-83
2023/04/28 02:12:50;;;;;;;2.75;1.48;;;17.50;70.80;;;;;;2427578;56;21012;-83
2023/04/28 02:15:16;;;;;;;3.08;1.25;;;17.60;71.00;;;;;;2429321;56;20935;-83
2023/04/28 02:17:43;;;;;;;2.45;1.25;;;17.60;71.00;;;;;;2211044;56;20979;-84
2023/04/28 02:20:09;;;;;;;2.80;1.27;;;17.60;71.00;;;;;;2427664;56;21484;-84
2023/04/28 02:22:36;;;;;;;3.25;1.98;;;17.60;71.10;;;;;;2427843;56;21007;-84
2023/04/28 02:25:02;;;;;;;2.62;1.30;;;17.60;71.00;;;;;;2427197;56;20944;-84
2023/04/28 02:27:28;;;;;;;2.62;1.30;;;17.60;71.10;;;;;;2209680;56;20966;-84
2023/04/28 02:29:54;;;;;;;2.97;1.50;;;17.60;71.20;;;;;;2426929;56;20999;-84
2023/04/28 02:32:20;;;;;;;3.35;1.83;;;17.60;71.20;;;;;;2210542;56;20967;-83
2023/04/28 02:34:52;;;;;;;2.58;1.17;;;17.50;71.00;;;;;;2427324;56;21043;-84
2023/04/28 02:37:18;;;;;;;3.00;1.53;;;17.60;70.90;;;;;;2427198;56;21031;-84
2023/04/28 02:39:45;;;;;;;2.50;1.20;;;17.60;71.30;;;;;;2210546;56;21794;-84
2023/04/28 02:42:11;;;;;;;2.58;1.30;;;17.60;71.40;;;;;;2425717;56;20996;-83
2023/04/28 02:44:37;;;;;;;2.60;1.60;;;17.60;71.40;;;;;;2427670;56;20939;-84
2023/04/28 02:47:03;;;;;;;2.80;1.37;;;17.50;71.40;;;;;;2426332;56;21639;-84
2023/04/28 02:49:30;;;;;;;2.85;1.60;;;17.60;71.50;;;;;;2427795;56;20951;-83
2023/04/28 02:51:56;;;;;;;4.57;1.40;;;17.60;71.50;;;;;;2426322;56;21024;-84
2023/04/28 02:54:28;;;;;;;3.50;1.67;;;17.50;71.50;;;;;;2427376;56;20956;-84
2023/04/28 02:56:54;;;;;;;2.72;1.62;;;17.60;71.60;;;;;;2426344;56;20996;-83
2023/04/28 02:59:21;;;;;;;2.90;1.70;;;17.50;71.50;;;;;;2427074;56;21773;-84
2023/04/28 03:01:48;;;;;;;3.72;1.80;;;17.60;71.50;;;;;;2426261;56;21071;-83
2023/04/28 03:04:14;;;;;;;3.15;1.73;;;17.50;71.20;;;;;;2209425;56;21059;-83
2023/04/28 03:06:41;;;;;;;3.05;1.60;;;17.50;71.20;;;;;;2426803;56;20995;-84
2023/04/28 03:09:07;;;;;;;3.17;1.65;;;17.50;71.30;;;;;;2209004;56;21494;-83
2023/04/28 03:11:33;;;;;;;3.05;1.62;;;17.50;71.30;;;;;;2426568;56;20952;-85
2023/04/28 03:14:00;;;;;;;3.45;1.60;;;17.40;71.30;;;;;;2208883;56;20963;-85
2023/04/28 03:16:26;;;;;;;3.55;1.50;;;17.50;71.50;;;;;;2426511;56;21064;-84
2023/04/28 03:18:52;;;;;;;2.60;1.27;;;17.40;71.50;;;;;;2426793;56;20980;-84
2023/04/28 03:21:19;;;;;;;2.58;1.33;;;17.50;71.70;;;;;;2426387;56;20969;-84
2023/04/28 03:23:45;;;;;;;2.67;1.40;;;17.40;71.70;;;;;;2424449;56;21029;-84
2023/04/28 03:26:11;;;;;;;2.53;1.12;;;17.40;71.70;;;;;;2422750;56;21307;-84
2023/04/28 03:28:37;;;;;;;3.53;1.37;;;17.40;71.80;;;;;;2423055;56;21493;-84
2023/04/28 03:31:03;;;;;;;2.17;1.10;;;17.40;71.80;;;;;;2422612;56;20980;-83
2023/04/28 03:33:30;;;;;;;2.53;1.10;;;17.40;71.70;;;;;;2206469;56;20943;-84
2023/04/28 03:35:56;;;;;;;2.75;1.40;;;17.40;71.70;;;;;;2423133;56;20959;-84
2023/04/28 03:38:23;;;;;;;4.47;1.50;;;17.30;71.70;;;;;;2206747;56;21958;-84
2023/04/28 03:40:49;;;;;;;2.35;1.10;;;17.40;71.80;;;;;;2423114;56;20972;-84
2023/04/28 03:43:16;;;;;;;3.87;1.50;;;17.40;71.90;;;;;;2206177;56;21014;-84
2023/04/28 03:45:42;;;;;;;2.78;1.48;;;17.30;71.90;;;;;;2206075;56;20935;-84
2023/04/28 03:48:08;;;;;;;4.18;1.60;;;17.30;72.00;;;;;;2419035;56;21409;-84
2023/04/28 03:50:34;;;;;;;2.87;1.40;;;17.30;72.10;;;;;;2203787;56;20991;-83
2023/04/28 03:53:01;;;;;;;2.78;1.10;;;17.30;72.20;;;;;;2203851;56;20963;-85
2023/04/28 03:55:27;;;;;;;2.67;1.37;;;17.30;72.20;;;;;;2419281;56;21016;-85
2023/04/28 03:57:54;;;;;;;2.92;1.62;;;17.40;72.50;;;;;;2419331;56;22005;-84
2023/04/28 04:00:20;;;;;;;2.97;1.40;;;17.20;73.00;;;;;;2203178;56;21665;-84
2023/04/28 04:02:46;;;;;;;4.18;1.40;;;17.40;72.50;;;;;;2423210;55;21035;-92
2023/04/28 04:05:13;;;;;;;2.83;1.60;;;17.40;72.60;;;;;;2432363;55;20992;-90
2023/04/28 04:07:39;;;;;;;3.20;1.40;;;17.40;72.50;;;;;;2430914;55;20916;-90
2023/04/28 04:10:06;;;;;;;3.20;1.50;;;17.50;72.70;;;;;;2209371;56;20983;-84
2023/04/28 04:12:33;;;;;;;2.50;1.20;;;17.40;72.60;;;;;;2418884;55;20960;-84
2023/04/28 04:14:59;;;;;;;3.20;1.62;;;17.40;72.60;;;;;;2419771;56;20935;-84
2023/04/28 04:17:25;;;;;;;2.50;1.30;;;17.40;72.70;;;;;;2202761;56;21824;-83
2023/04/28 04:19:51;;;;;;;3.30;1.60;;;17.40;72.80;;;;;;2420079;56;22177;-84
2023/04/28 04:22:18;;;;;;;3.35;1.58;;;17.40;72.80;;;;;;2418585;56;21024;-84
2023/04/28 04:24:45;;;;;;;2.90;1.27;;;17.40;72.90;;;;;;2419785;56;20956;-84
2023/04/28 04:27:11;;;;;;;2.40;1.15;;;17.50;72.90;;;;;;2206411;56;21147;-83
2023/04/28 04:29:37;;;;;;;2.50;1.30;;;17.50;73.00;;;;;;2418279;56;20923;-84
2023/04/28 04:32:04;;;;;;;2.45;1.40;;;17.40;72.90;;;;;;2419108;56;21003;-84
2023/04/28 04:34:30;;;;;;;2.28;1.05;;;17.50;73.10;;;;;;2421107;56;21279;-84
2023/04/28 04:36:57;;;;;;;2.28;1.17;;;17.50;73.10;;;;;;2420334;56;21036;-84
2023/04/28 04:39:23;;;;;;;3.17;1.60;;;17.50;73.20;;;;;;2420983;56;21007;-84
2023/04/28 04:41:51;;;;;;;3.33;1.42;;;17.50;73.20;;;;;;2204140;56;21939;-84
2023/04/28 04:44:17;;;;;;;2.50;1.30;;;17.50;73.30;;;;;;2421017;56;21764;-84
2023/04/28 04:46:44;;;;;;;3.17;1.20;;;17.50;73.30;;;;;;2207492;56;20947;-84
2023/04/28 04:49:11;;;;;;;2.70;1.35;;;17.60;73.50;;;;;;2424965;56;20959;-84
2023/04/28 04:51:37;;;;;;;3.12;1.60;;;17.60;73.50;;;;;;2425580;56;20989;-85
2023/04/28 04:54:04;;;;;;;2.60;1.40;;;17.60;73.50;;;;;;2208121;56;20978;-85
2023/04/28 04:56:30;;;;;;;2.65;1.37;;;17.60;73.60;;;;;;2208411;56;20959;-85
2023/04/28 04:58:56;;;;;;;3.15;1.48;;;17.60;73.60;;;;;;2425285;56;20959;-85
2023/04/28 05:01:23;;;;;;;3.28;1.60;;;17.60;73.60;;;;;;2424623;56;20983;-84
2023/04/28 05:03:49;;;;;;;3.40;1.15;;;17.70;73.70;;;;;;2208856;56;21003;-85
2023/04/28 05:06:15;;;;;;;2.20;1.00;;;17.70;73.80;;;;;;2423769;56;20952;-85
2023/04/28 05:08:41;;;;;;;3.62;1.30;;;17.70;73.80;;;;;;2426382;56;20996;-85
2023/04/28 05:11:08;;;;;;;2.80;1.25;;;17.70;73.80;;;;;;2424687;56;20968;-84
2023/04/28 05:13:35;;;;;;;2.30;1.10;;;17.70;73.80;;;;;;2427112;56;21458;-85
2023/04/28 05:16:01;;;;;;;2.37;1.20;;;17.80;74.00;;;;;;2424142;56;20959;-85
2023/04/28 05:18:27;;;;;;;2.92;1.30;;;17.80;74.00;;;;;;2425893;56;20976;-84
2023/04/28 05:20:53;;;;;;;2.22;1.20;;;17.80;74.00;;;;;;2425939;55;21066;-85
2023/04/28 05:23:20;;;;;;;2.50;1.00;;;17.80;74.00;;;;;;2208598;56;21047;-84
2023/04/28 05:25:46;;;;;;;2.97;1.50;;;17.90;74.20;;;;;;2212054;56;21063;-84
2023/04/28 05:28:12;;;;;;;2.17;1.08;;;17.90;74.20;;;;;;2425414;56;21023;-85
2023/04/28 05:30:39;;;;;;;2.17;1.02;;;18.00;74.30;;;;;;2209059;56;21011;-84
2023/04/28 05:33:05;;;;;;;2.42;1.30;;;17.90;74.20;;;;;;2425591;56;21445;-85
2023/04/28 05:35:31;;;;;;;2.60;1.30;;;17.90;74.20;;;;;;2426131;56;21031;-84
2023/04/28 05:37:58;;;;;;;3.10;1.25;;;18.00;74.20;;;;;;2209129;56;20976;-84
2023/04/28 05:40:25;;;;;;;2.15;1.12;;;18.00;74.20;;;;;;2209212;56;20900;-83
2023/04/28 05:42:52;;;;;;;2.00;1.00;;;18.00;74.20;;;;;;2426690;56;21004;-84
2023/04/28 05:45:18;;;;;;;2.90;1.30;;;18.00;74.30;;;;;;2209539;56;20979;-85
2023/04/28 05:47:44;;;;;;;3.00;1.25;;;18.20;74.40;;;;;;2209665;56;20974;-84
2023/04/28 05:50:10;;;;;;;3.08;1.60;;;18.10;74.20;;;;;;2210053;56;20972;-84
2023/04/28 05:52:37;;;;;;;2.78;1.30;;;18.10;74.30;;;;;;2209690;56;20991;-84
2023/04/28 05:55:03;;;;;;;2.10;0.95;;;18.20;74.20;;;;;;2426575;56;20969;-84
2023/04/28 05:57:30;;;;;;;3.05;1.23;;;18.20;74.30;;;;;;2209694;56;20975;-85
2023/04/28 05:59:59;;;;;;;2.85;1.20;;;18.20;74.20;;;;;;2209701;56;20968;-84
2023/04/28 06:02:25;;;;;;;2.35;1.10;;;18.20;74.30;;;;;;2426669;55;20940;-84
2023/04/28 06:04:53;;;;;;;2.42;1.23;;;18.20;74.30;;;;;;2209954;56;20931;-83
2023/04/28 06:07:20;;;;;;;2.50;1.10;;;18.30;74.40;;;;;;2425386;56;21020;-84
2023/04/28 06:09:46;;;;;;;3.60;1.40;;;18.20;74.20;;;;;;2425831;56;20943;-84
2023/04/28 06:12:13;;;;;;;2.83;1.23;;;18.30;74.30;;;;;;2426322;56;20999;-83
2023/04/28 06:14:39;;;;;;;2.92;1.23;;;18.30;74.30;;;;;;2427105;56;21107;-84
2023/04/28 06:17:05;;;;;;;2.45;1.27;;;18.30;74.30;;;;;;2209207;56;20977;-84
2023/04/28 06:19:31;;;;;;;3.50;1.30;;;18.30;74.20;;;;;;2426503;56;21390;-84
2023/04/28 06:21:58;;;;;;;3.15;1.55;;;18.40;74.30;;;;;;2209228;56;20960;-83
2023/04/28 06:24:24;;;;;;;3.50;1.52;;;18.40;74.20;;;;;;2208829;56;20980;-83
2023/04/28 06:26:50;;;;;;;3.20;1.12;;;18.40;74.20;;;;;;2425671;56;21786;-84
2023/04/28 06:29:16;;;;;;;3.03;1.60;;;18.40;74.20;;;;;;2208670;56;21007;-84
2023/04/28 06:31:42;;;;;;;2.45;1.27;;;18.40;74.20;;;;;;2425610;56;20940;-84
2023/04/28 06:34:09;;;;;;;2.40;1.20;;;18.40;74.20;;;;;;2425227;56;20948;-84
2023/04/28 06:36:35;;;;;;;3.10;1.55;;;18.40;74.20;;;;;;2425287;56;20955;-85
2023/04/28 06:39:01;;;;;;;3.17;1.58;;;18.50;74.20;;;;;;2209574;56;21107;-83
2023/04/28 06:41:28;;;;;;;3.05;1.40;;;18.50;74.20;;;;;;2425274;56;20951;-83
2023/04/28 06:43:54;;;;;;;3.28;1.67;;;18.50;74.10;;;;;;2425658;56;21802;-84
2023/04/28 06:46:20;;;;;;;3.37;1.70;;;18.50;74.00;;;;;;2209293;56;21559;-84
2023/04/28 06:48:47;;;;;;;2.90;1.40;;;18.50;74.00;;;;;;2209190;56;20984;-84
2023/04/28 06:51:13;;;;;;;3.03;1.40;;;18.50;74.00;;;;;;2425445;56;21008;-84
2023/04/28 06:53:41;;;;;;;3.10;1.60;;;18.50;73.90;;;;;;2426002;56;21019;-84
2023/04/28 06:56:07;;;;;;;3.67;2.20;;;18.50;74.00;;;;;;2425666;56;20964;-83
2023/04/28 06:58:34;;;;;;;8.43;3.90;;;18.50;73.80;;;;;;2209153;56;21456;-84
2023/04/28 07:01:02;;;;;;;10.82;4.25;;;18.50;73.70;;;;;;2192074;57;22018;-84
2023/04/28 07:03:28;;;;;;;13.02;6.50;;;18.50;73.70;;;;;;2208778;56;21060;-85
2023/04/28 07:05:54;;;;;;;17.10;7.12;;;18.50;73.70;;;;;;2212628;56;21231;-85
2023/04/28 07:08:21;;;;;;;7.87;4.37;;;18.40;73.60;;;;;;2212733;56;20988;-85
2023/04/28 07:10:47;;;;;;;7.05;3.40;;;18.50;73.50;;;;;;2417698;56;21049;-84
2023/04/28 07:13:13;;;;;;;6.95;3.72;;;18.40;73.50;;;;;;2422196;55;20928;-84
2023/04/28 07:15:40;;;;;;;5.22;2.85;;;18.40;73.50;;;;;;2425605;56;22106;-85
2023/04/28 07:18:06;;;;;;;13.68;6.68;;;18.40;73.50;;;;;;2425327;56;20952;-84
2023/04/28 07:20:32;;;;;;;25.25;10.75;;;18.30;73.50;;;;;;2426371;55;20964;-84
2023/04/28 07:22:58;;;;;;;23.58;11.60;;;18.30;73.60;;;;;;2426598;56;21012;-84
2023/04/28 07:25:25;;;;;;;19.15;11.27;;;18.30;73.70;;;;;;2425628;56;20928;-84
2023/04/28 07:27:53;;;;;;;13.68;8.10;;;18.20;74.50;;;;;;2208462;56;20979;-85
2023/04/28 07:30:19;;;;;;;8.23;4.90;;;18.20;73.80;;;;;;2426394;56;21027;-83
2023/04/28 07:32:51;;;;;;;6.03;3.40;;;18.20;73.90;;;;;;2426760;55;21844;-85
2023/04/28 07:35:20;;;;;;;5.80;3.60;;;18.20;73.90;;;;;;2425941;55;20928;-83
2023/04/28 07:37:47;;;;;;;3.87;2.47;;;18.20;74.20;;;;;;2424783;56;21281;-83
2023/04/28 07:40:13;;;;;;;3.25;2.12;;;18.20;74.30;;;;;;2425084;56;21028;-84
2023/04/28 07:42:39;;;;;;;3.25;1.77;;;18.20;74.50;;;;;;2207503;56;21465;-84
2023/04/28 07:45:06;;;;;;;2.97;1.55;;;18.20;74.60;;;;;;2208729;56;21099;-86
2023/04/28 07:47:33;;;;;;;2.65;1.30;;;18.20;74.80;;;;;;2425760;56;21040;-84
2023/04/28 07:50:02;;;;;;;3.67;1.37;;;18.20;74.90;;;;;;2207908;56;21362;-84
2023/04/28 07:52:28;;;;;;;2.70;1.30;;;18.20;75.00;;;;;;2423880;56;20932;-83
2023/04/28 07:54:55;;;;;;;2.78;1.40;;;18.20;74.90;;;;;;2423911;56;21492;-83
2023/04/28 07:57:21;;;;;;;2.20;1.00;;;18.20;75.20;;;;;;2421371;56;20971;-83
2023/04/28 07:59:47;;;;;;;2.75;1.20;;;18.20;75.10;;;;;;2205100;56;20979;-83
2023/04/28 08:02:13;;;;;;;2.72;1.30;;;18.20;75.10;;;;;;2420964;56;21047;-83
2023/04/28 08:04:40;;;;;;;2.95;1.30;;;18.20;75.10;;;;;;2209577;56;21013;-83
2023/04/28 08:07:07;;;;;;;2.50;1.15;;;18.20;75.10;;;;;;2424829;56;20916;-83
2023/04/28 08:09:37;;;;;;;3.45;1.37;;;18.30;75.20;;;;;;2398496;56;21841;-84
2023/04/28 08:12:03;;;;;;;2.67;1.42;;;18.20;74.80;;;;;;2206747;56;20928;-83
2023/04/28 08:14:29;;;;;;;6.22;1.40;;;18.30;75.10;;;;;;2423915;56;20981;-82
2023/04/28 08:16:56;;;;;;;2.67;1.40;;;18.30;75.10;;;;;;2210774;56;20962;-83
2023/04/28 08:19:22;;;;;;;2.92;1.30;;;18.30;75.10;;;;;;2206985;56;20975;-83
2023/04/28 08:21:51;;;;;;;2.78;1.37;;;18.30;75.10;;;;;;2423677;56;21019;-82
2023/04/28 08:24:18;;;;;;;3.95;1.80;;;18.20;74.90;;;;;;2424231;56;21721;-82
2023/04/28 08:26:44;;;;;;;2.37;1.23;;;18.30;75.00;;;;;;2211073;56;20971;-83
2023/04/28 08:29:11;;;;;;;2.87;1.30;;;18.30;75.00;;;;;;2210402;56;20947;-84
2023/04/28 08:31:37;;;;;;;3.00;1.35;;;18.30;74.90;;;;;;2210371;56;20940;-83
2023/04/28 08:34:03;;;;;;;2.60;1.35;;;18.30;74.80;;;;;;2424759;56;21616;-83
2023/04/28 08:36:32;;;;;;;2.92;1.27;;;18.30;75.10;;;;;;2211351;56;21002;-84
2023/04/28 08:38:59;;;;;;;3.75;1.60;;;18.40;75.20;;;;;;2415178;56;21015;-86
2023/04/28 08:41:28;;;;;;;2.70;1.50;;;18.20;75.10;;;;;;2423073;56;20967;-85
2023/04/28 08:43:55;;;;;;;2.70;1.60;;;18.40;75.30;;;;;;2215948;56;21924;-84
2023/04/28 08:46:21;;;;;;;4.45;1.60;;;18.40;75.30;;;;;;2405528;56;20968;-83
2023/04/28 08:48:48;;;;;;;3.20;1.48;;;18.40;75.50;;;;;;2425358;56;20939;-83
2023/04/28 08:51:15;;;;;;;2.08;1.05;;;18.30;75.50;;;;;;2208813;56;20971;-83
2023/04/28 08:53:44;;;;;;;2.47;1.20;;;18.30;75.60;;;;;;2208865;56;21032;-83
2023/04/28 08:56:26;;;;;;;3.75;1.45;;;18.40;75.70;;;;;;2209467;56;20948;-83
2023/04/28 08:58:53;;;;;;;2.97;1.55;;;18.40;76.00;;;;;;2207899;56;20975;-84
2023/04/28 09:01:19;;;;;;;4.00;1.55;;;18.40;76.20;;;;;;2425554;56;21503;-83
2023/04/28 09:03:47;;;;;;;2.42;1.33;;;18.50;76.40;;;;;;2426168;56;21615;-83
2023/04/28 09:06:14;;;;;;;2.45;1.35;;;18.50;76.40;;;;;;2208846;56;20953;-84
2023/04/28 09:08:40;;;;;;;2.80;1.30;;;18.60;76.60;;;;;;2425912;56;20947;-84
2023/04/28 09:11:08;;;;;;;2.80;1.40;;;18.60;76.70;;;;;;2427190;56;21387;-85
2023/04/28 09:13:34;;;;;;;3.35;1.70;;;18.60;76.70;;;;;;2426404;56;21043;-84
2023/04/28 09:16:01;;;;;;;2.62;1.55;;;18.60;76.60;;;;;;2426290;56;21292;-87
2023/04/28 09:18:29;;;;;;;3.67;1.75;;;18.70;76.40;;;;;;2426211;56;21016;-87
2023/04/28 09:21:10;;;;;;;2.80;1.50;;;18.60;76.30;;;;;;2210143;56;21283;-87
2023/04/28 09:23:47;;;;;;;2.92;1.42;;;18.80;76.00;;;;;;2209937;56;21276;-85
2023/04/28 09:26:13;;;;;;;2.33;1.25;;;18.80;76.10;;;;;;2422701;56;20977;-84
2023/04/28 09:28:39;;;;;;;2.45;1.50;;;18.80;76.50;;;;;;2205039;56;21032;-84
2023/04/28 09:31:22;;;;;;;3.05;1.60;;;18.90;76.40;;;;;;2422298;56;20971;-84
2023/04/28 09:34:08;;;;;;;2.97;1.65;;;18.90;76.30;;;;;;2210089;56;20948;-84
2023/04/28 09:36:34;;;;;;;4.22;2.08;;;19.00;75.90;;;;;;2421005;56;20968;-84
2023/04/28 09:39:00;;;;;;;4.20;2.12;;;19.00;76.60;;;;;;2206160;56;20971;-84
2023/04/28 09:41:42;;;;;;;4.47;2.22;;;19.00;76.60;;;;;;2205413;56;20964;-84
2023/04/28 09:44:16;;;;;;;3.62;2.30;;;19.10;76.10;;;;;;2422083;56;20948;-83
2023/04/28 09:46:43;;;;;;;3.30;1.83;;;19.10;76.80;;;;;;2206652;56;20995;-84
2023/04/28 09:49:13;;;;;;;3.47;1.73;;;19.10;76.20;;;;;;2425458;56;21091;-88
2023/04/28 09:51:39;;;;;;;2.80;1.58;;;19.20;76.00;;;;;;2210078;56;20928;-87
2023/04/28 09:54:06;;;;;;;3.12;1.73;;;19.20;76.10;;;;;;2427187;56;21563;-89
2023/04/28 09:56:37;;;;;;;3.53;1.60;;;19.20;76.00;;;;;;2425893;56;22010;-87
2023/04/28 09:59:03;;;;;;;3.47;1.90;;;19.20;76.10;;;;;;2210772;56;20955;-88
2023/04/28 10:01:39;;;;;;;3.03;1.90;;;19.20;76.10;;;;;;2426653;56;21012;-87
2023/04/28 10:04:06;;;;;;;3.28;1.87;;;19.30;76.10;;;;;;2427117;56;20956;-88
2023/04/28 10:06:35;;;;;;;3.25;1.98;;;19.30;76.30;;;;;;2426221;56;20995;-87
2023/04/28 10:09:02;;;;;;;3.33;1.83;;;19.40;76.40;;;;;;2427405;56;21075;-89
2023/04/28 10:11:29;;;;;;;3.55;1.50;;;19.20;76.40;;;;;;2209196;56;21031;-84
2023/04/28 10:13:55;;;;;;;2.53;1.40;;;19.40;76.40;;;;;;2209019;56;20972;-84
2023/04/28 10:16:22;;;;;;;2.40;1.50;;;19.40;76.40;;;;;;2424608;56;21893;-83
2023/04/28 10:18:48;;;;;;;2.67;1.35;;;19.50;76.40;;;;;;2208207;56;21356;-84
2023/04/28 10:21:17;;;;;;;2.72;1.33;;;19.50;76.30;;;;;;2426422;56;21063;-83
2023/04/28 10:24:30;;;;;;;2.40;1.10;;;19.60;76.40;;;;;;2424184;56;21036;-83
2023/04/28 10:27:30;;;;;;;2.58;1.23;;;19.60;75.30;;;;;;2422069;56;21032;-84
2023/04/28 10:30:16;;;;;;;2.25;1.02;;;19.60;75.30;;;;;;2211269;56;21086;-84
2023/04/28 10:33:12;;;;;;;3.37;1.70;;;19.70;75.50;;;;;;2417852;56;20948;-84
2023/04/28 10:35:48;;;;;;;2.10;1.10;;;19.70;76.00;;;;;;2213043;56;21534;-83
2023/04/28 10:39:14;;;;;;;2.05;1.17;;;19.60;75.60;;;;;;2409495;56;21071;-84
2023/04/28 10:41:55;;;;;;;3.80;1.25;;;19.70;76.10;;;;;;2391547;57;21002;-84
2023/04/28 10:44:41;;;;;;;1.75;0.90;;;19.80;75.60;;;;;;2393186;57;21242;-83
2023/04/28 10:47:08;;;;;;;2.95;1.10;;;19.80;76.00;;;;;;2422684;56;20955;-83
2023/04/28 10:50:14;;;;;;;2.58;1.33;;;19.90;76.50;;;;;;2422050;56;21406;-83
2023/04/28 10:52:49;;;;;;;2.70;1.35;;;19.90;75.70;;;;;;2204750;56;21016;-84
2023/04/28 10:55:38;;;;;;;2.40;1.10;;;19.90;76.60;;;;;;2422638;56;21523;-84
2023/04/28 11:00:25;;;;;;;3.03;1.15;;;20.00;75.70;;;;;;2206992;56;22065;-83
2023/04/28 11:02:51;;;;;;;3.50;1.02;;;20.10;75.30;;;;;;2422375;56;21099;-83
2023/04/28 11:05:18;;;;;;;4.95;2.45;;;20.10;76.40;;;;;;2421940;56;21015;-83
2023/04/28 11:08:21;;;;;;;3.17;1.80;;;20.10;76.50;;;;;;2420211;56;21814;-83
2023/04/28 11:12:38;;;;;;;2.80;1.48;;;20.20;76.00;;;;;;2206254;56;21959;-83
2023/04/28 11:15:12;;;;;;;3.65;1.10;;;20.20;76.00;;;;;;2422365;56;20947;-85
2023/04/28 11:17:39;;;;;;;3.42;1.37;;;20.30;76.20;;;;;;2421601;56;21467;-84
2023/04/28 11:20:07;;;;;;;2.45;1.23;;;20.40;76.70;;;;;;2424316;56;22171;-85
2023/04/28 11:22:34;;;;;;;3.55;1.52;;;20.40;76.50;;;;;;2422502;56;21007;-84
2023/04/28 11:25:01;;;;;;;2.25;1.17;;;20.40;76.30;;;;;;2209331;56;20960;-86
2023/04/28 11:27:31;;;;;;;3.28;1.40;;;20.50;76.10;;;;;;2208882;56;21008;-85
2023/04/28 11:29:58;;;;;;;2.55;1.40;;;20.50;76.10;;;;;;2421982;56;21025;-84
2023/04/28 11:32:28;;;;;;;2.83;1.65;;;20.60;76.10;;;;;;2204609;56;20959;-83
2023/04/28 11:34:55;;;;;;;3.28;2.08;;;20.60;75.70;;;;;;2207802;56;21031;-84
2023/04/28 11:37:21;;;;;;;5.45;2.05;;;20.60;75.70;;;;;;2204395;56;21887;-84
2023/04/28 11:39:48;;;;;;;3.87;1.70;;;20.60;75.60;;;;;;2420298;56;21492;-84
2023/04/28 11:42:15;;;;;;;3.40;1.60;;;20.60;75.70;;;;;;2422344;55;21544;-85
2023/04/28 11:44:49;;;;;;;2.62;1.35;;;20.70;75.90;;;;;;2204676;56;20999;-84
2023/04/28 11:49:08;;;;;;;3.55;1.50;;;20.70;75.70;;;;;;2420883;56;21025;-84
2023/04/28 11:51:38;;;;;;;2.78;1.10;;;20.80;74.80;;;;;;2204491;56;20967;-84
2023/04/28 11:54:06;;;;;;;2.37;1.17;;;20.80;76.00;;;;;;2205355;56;20979;-85
2023/04/28 11:56:38;;;;;;;2.72;1.40;;;20.80;76.00;;;;;;2204074;56;21003;-84
2023/04/28 11:59:09;;;;;;;2.25;1.02;;;20.90;75.60;;;;;;2420477;56;21007;-83
2023/04/28 12:01:50;;;;;;;3.28;1.20;;;20.90;75.90;;;;;;2418594;56;22088;-83
2023/04/28 12:04:49;;;;;;;3.75;1.30;;;20.90;75.60;;;;;;2420240;56;20952;-85
2023/04/28 12:07:17;;;;;;;3.35;1.40;;;21.00;75.60;;;;;;2420074;56;21284;-84
2023/04/28 12:09:45;;;;;;;4.72;1.20;;;21.00;76.10;;;;;;2420400;56;20954;-85
2023/04/28 12:12:13;;;;;;;2.75;1.12;;;21.00;75.90;;;;;;2420875;56;21043;-85
2023/04/28 12:15:00;;;;;;;2.30;0.93;;;21.10;76.10;;;;;;2204404;56;21430;-84
2023/04/28 12:17:34;;;;;;;1.95;1.00;;;21.10;75.50;;;;;;2204877;56;20959;-84
2023/04/28 12:20:01;;;;;;;2.70;1.20;;;21.20;76.40;;;;;;2422125;56;21347;-83
2023/04/28 12:22:28;;;;;;;2.78;1.05;;;21.20;76.20;;;;;;2421283;56;20955;-85
2023/04/28 12:25:10;;;;;;;2.60;1.20;;;21.20;76.10;;;;;;2423262;56;20967;-90
2023/04/28 12:27:40;;;;;;;2.05;1.10;;;21.30;75.40;;;;;;2214296;56;20983;-90
2023/04/28 12:30:27;;;;;;;2.30;1.15;;;21.30;76.10;;;;;;2210909;56;21023;-90
2023/04/28 12:32:54;;;;;;;2.37;1.00;;;21.30;75.20;;;;;;2214202;56;21119;-90
2023/04/28 12:35:22;;;;;;;2.28;0.90;;;21.40;76.00;;;;;;2426322;56;20980;-88
2023/04/28 12:37:52;;;;;;;2.10;0.90;;;21.40;75.90;;;;;;2209284;56;20960;-88
2023/04/28 12:40:18;;;;;;;3.17;0.82;;;21.40;75.90;;;;;;2211961;56;20971;-90
2023/04/28 12:42:44;;;;;;;1.90;0.90;;;21.40;75.90;;;;;;2425417;56;20943;-89
2023/04/28 12:45:11;;;;;;;3.35;1.40;;;21.50;76.00;;;;;;2209999;56;20943;-87
2023/04/28 12:47:38;;;;;;;2.67;1.30;;;21.50;75.90;;;;;;2425745;56;20955;-87
2023/04/28 12:50:06;;;;;;;3.35;1.35;;;21.50;75.90;;;;;;2426603;56;20996;-88
2023/04/28 12:52:34;;;;;;;2.25;1.00;;;21.50;75.80;;;;;;2427415;56;20960;-88
2023/04/28 12:55:01;;;;;;;3.87;1.90;;;21.60;75.80;;;;;;2428743;55;21000;-89
2023/04/28 12:57:28;;;;;;;2.72;1.42;;;21.60;75.80;;;;;;2427848;56;21440;-87